Time;durP1;ratioP1;P1;durP2;ratioP2;P2;SDS_P1;SDS_P2;PMS_P1;PMS_P2;Temp;Humidity;BMP_temperature;BMP_pressure;BME280_temperature;BME280_humidity;BME280_pressure;Samples;Min_cycle;Max_cycle;Signal;HPM_P1;HPM_P2
2021/01/06 00:01:45;;;;;;;31.63;28.52;;;3.00;94.00;;;;;;5054651;28;20207;-77
2021/01/06 00:04:12;;;;;;;33.72;28.27;;;3.10;93.20;;;;;;5056788;28;20197;-77
2021/01/06 00:06:39;;;;;;;32.72;29.55;;;3.10;92.80;;;;;;5053394;28;20208;-77
2021/01/06 00:09:06;;;;;;;33.40;30.13;;;3.00;93.60;;;;;;5054421;28;20196;-78
2021/01/06 00:11:35;;;;;;;30.70;27.95;;;3.10;93.20;;;;;;5054392;28;20197;-77
2021/01/06 00:14:04;;;;;;;32.13;28.92;;;3.10;93.20;;;;;;5054619;28;20197;-77
2021/01/06 00:16:30;;;;;;;31.75;28.55;;;3.00;93.30;;;;;;5067020;28;20222;-77
2021/01/06 00:18:57;;;;;;;31.52;28.50;;;3.10;93.10;;;;;;5074330;28;20286;-77
2021/01/06 00:21:24;;;;;;;32.92;29.83;;;3.00;93.30;;;;;;5074308;28;20202;-77
2021/01/06 00:23:51;;;;;;;33.63;30.33;;;2.90;93.40;;;;;;5074385;28;20204;-77
2021/01/06 00:26:17;;;;;;;34.78;31.58;;;2.90;93.90;;;;;;5073190;28;20619;-77
2021/01/06 00:28:43;;;;;;;33.65;30.30;;;2.90;93.40;;;;;;5075698;28;20192;-77
2021/01/06 00:31:10;;;;;;;31.92;28.83;;;2.80;94.10;;;;;;5079868;28;20200;-77
2021/01/06 00:33:37;;;;;;;33.42;30.45;;;2.70;94.00;;;;;;5074466;28;20253;-77
2021/01/06 00:36:09;;;;;;;31.17;28.27;;;2.70;94.70;;;;;;5064502;28;20221;-77
2021/01/06 00:38:37;;;;;;;31.27;28.45;;;2.70;94.10;;;;;;5053915;28;20678;-77
2021/01/06 00:41:04;;;;;;;32.20;29.30;;;2.70;94.30;;;;;;5053982;28;20654;-77
2021/01/06 00:43:31;;;;;;;33.75;30.52;;;2.60;94.70;;;;;;5053865;28;20197;-77
2021/01/06 00:45:58;;;;;;;32.20;29.00;;;2.50;94.80;;;;;;5061457;28;20212;-77
2021/01/06 00:48:24;;;;;;;32.33;29.33;;;2.50;95.20;;;;;;5073271;28;20192;-77
2021/01/06 00:50:51;;;;;;;32.47;29.38;;;2.70;94.90;;;;;;5073150;28;20196;-77
2021/01/06 00:53:22;;;;;;;32.05;28.85;;;2.80;94.00;;;;;;5073478;28;20215;-77
2021/01/06 00:55:49;;;;;;;31.98;28.88;;;2.70;93.60;;;;;;5066274;28;20285;-77
2021/01/06 00:58:16;;;;;;;31.60;28.50;;;2.60;94.30;;;;;;5053516;28;20627;-77
2021/01/06 01:00:42;;;;;;;31.58;28.58;;;2.60;94.50;;;;;;5053567;28;20199;-77
2021/01/06 01:03:08;;;;;;;32.58;29.67;;;2.60;93.90;;;;;;5053434;28;20192;-77
2021/01/06 01:05:37;;;;;;;31.40;28.50;;;2.50;94.00;;;;;;5053133;28;20197;-77
2021/01/06 01:08:05;;;;;;;31.30;28.05;;;2.50;95.20;;;;;;5061907;28;20211;-77
2021/01/06 01:10:36;;;;;;;31.60;28.50;;;2.40;95.00;;;;;;5072665;28;20192;-77
2021/01/06 01:13:05;;;;;;;33.28;30.02;;;2.40;94.80;;;;;;5073051;28;20220;-77
2021/01/06 01:15:34;;;;;;;31.60;28.42;;;2.50;94.70;;;;;;5072996;28;20196;-77
2021/01/06 01:18:01;;;;;;;30.90;27.80;;;2.40;94.60;;;;;;5073207;28;20200;-77
2021/01/06 01:20:27;;;;;;;31.15;28.35;;;2.50;94.60;;;;;;5058870;28;20241;-77
2021/01/06 01:22:54;;;;;;;30.10;27.50;;;2.30;94.50;;;;;;5070105;28;20188;-77
2021/01/06 01:25:23;;;;;;;31.27;28.33;;;2.40;94.60;;;;;;5073138;28;20196;-77
2021/01/06 01:27:50;;;;;;;29.42;26.75;;;2.40;93.90;;;;;;5072698;28;20269;-77
2021/01/06 01:30:20;;;;;;;31.83;28.95;;;2.40;94.60;;;;;;5060324;28;20651;-77
2021/01/06 01:32:48;;;;;;;30.48;27.77;;;2.40;94.40;;;;;;5052849;28;20756;-77
2021/01/06 01:35:16;;;;;;;30.88;28.02;;;2.40;93.90;;;;;;5053005;28;20192;-77
2021/01/06 01:37:43;;;;;;;30.98;28.17;;;2.40;93.90;;;;;;5052708;28;20244;-77
2021/01/06 01:40:12;;;;;;;30.80;28.00;;;2.20;94.50;;;;;;5063728;28;20214;-77
2021/01/06 01:42:38;;;;;;;29.13;26.52;;;2.30;94.30;;;;;;5072690;28;20588;-77
2021/01/06 01:45:06;;;;;;;30.80;27.63;;;2.20;94.40;;;;;;5072619;28;20206;-77
2021/01/06 01:47:43;;;;;;;29.20;26.70;;;2.30;94.70;;;;;;5072497;28;20220;-77
2021/01/06 01:50:09;;;;;;;31.58;28.77;;;2.20;94.40;;;;;;5061267;28;20258;-77
2021/01/06 01:52:40;;;;;;;29.63;26.70;;;2.20;94.90;;;;;;5052545;28;20698;-77
2021/01/06 01:55:09;;;;;;;29.27;26.52;;;2.20;94.30;;;;;;5052404;28;20218;-77
2021/01/06 01:57:41;;;;;;;30.10;27.10;;;2.20;94.60;;;;;;5052337;28;20224;-77
2021/01/06 02:00:10;;;;;;;30.95;27.90;;;2.30;94.40;;;;;;5052583;28;20253;-77
2021/01/06 02:02:50;;;;;;;28.88;26.25;;;2.40;94.70;;;;;;5067199;28;20188;-77
2021/01/06 02:05:20;;;;;;;80.13;30.95;;;2.30;94.70;;;;;;5072175;28;20191;-77
2021/01/06 02:07:55;;;;;;;29.38;26.65;;;2.30;94.80;;;;;;5072042;28;20216;-77
2021/01/06 02:10:26;;;;;;;29.20;26.40;;;2.40;94.10;;;;;;5072685;28;20200;-77
2021/01/06 02:12:59;;;;;;;29.33;26.48;;;2.20;94.50;;;;;;5070093;28;20250;-77
2021/01/06 02:15:34;;;;;;;28.17;25.75;;;2.30;95.70;;;;;;5052376;28;20193;-77
2021/01/06 02:18:01;;;;;;;28.30;25.85;;;2.40;94.80;;;;;;5052404;28;20673;-77
2021/01/06 02:20:28;;;;;;;29.73;27.23;;;2.30;94.80;;;;;;5052315;28;20287;-77
2021/01/06 02:22:56;;;;;;;30.25;27.30;;;2.40;94.60;;;;;;5052214;28;20726;-77
2021/01/06 02:25:26;;;;;;;31.20;28.13;;;2.50;94.60;;;;;;5056985;28;20196;-77
2021/01/06 02:27:55;;;;;;;29.20;26.23;;;2.40;94.10;;;;;;5065132;28;20299;-77
2021/01/06 02:30:22;;;;;;;29.70;27.05;;;2.50;94.40;;;;;;5054079;28;20196;-77
2021/01/06 02:32:49;;;;;;;27.63;25.33;;;2.50;93.80;;;;;;5056770;28;20224;-77
2021/01/06 02:35:16;;;;;;;28.73;25.92;;;2.50;93.60;;;;;;5056383;28;20204;-77
2021/01/06 02:37:43;;;;;;;28.52;26.05;;;2.50;93.60;;;;;;5059993;28;20207;-77
2021/01/06 02:40:12;;;;;;;27.92;25.33;;;2.60;93.50;;;;;;5076105;28;20204;-77
2021/01/06 02:42:39;;;;;;;29.50;26.50;;;2.50;93.50;;;;;;5075972;28;20199;-77
2021/01/06 02:45:09;;;;;;;58.30;29.35;;;2.40;93.30;;;;;;5056144;28;20283;-77
2021/01/06 02:47:37;;;;;;;28.77;26.15;;;2.30;93.90;;;;;;5055544;28;20216;-77
2021/01/06 02:50:07;;;;;;;28.25;25.80;;;2.30;93.90;;;;;;5055683;28;20201;-77
2021/01/06 02:52:36;;;;;;;27.27;25.05;;;2.30;94.30;;;;;;5055854;28;20217;-77
2021/01/06 02:55:07;;;;;;;27.58;25.33;;;2.20;94.40;;;;;;5060088;28;20261;-76
2021/01/06 02:57:36;;;;;;;28.45;25.98;;;2.20;94.70;;;;;;5075477;28;20234;-77
2021/01/06 03:00:05;;;;;;;28.25;25.80;;;2.20;94.80;;;;;;5075487;28;20188;-77
2021/01/06 03:02:32;;;;;;;30.00;27.25;;;2.10;94.60;;;;;;5075686;28;20193;-77
2021/01/06 03:05:06;;;;;;;27.75;25.55;;;2.10;94.80;;;;;;5057092;28;20192;-77
2021/01/06 03:07:33;;;;;;;29.55;26.92;;;2.00;95.20;;;;;;5055421;28;20270;-77
2021/01/06 03:10:00;;;;;;;29.15;26.40;;;2.10;95.60;;;;;;5055574;28;20678;-77
2021/01/06 03:12:29;;;;;;;29.83;27.02;;;2.10;95.10;;;;;;5056629;28;20254;-77
2021/01/06 03:14:57;;;;;;;28.67;25.98;;;2.10;95.40;;;;;;5055813;28;20200;-77
2021/01/06 03:17:24;;;;;;;29.83;27.02;;;2.10;95.10;;;;;;5055503;28;20248;-77
2021/01/06 03:19:54;;;;;;;29.83;27.15;;;2.20;94.90;;;;;;5055803;28;20203;-77
2021/01/06 03:22:24;;;;;;;30.02;27.20;;;2.20;95.10;;;;;;5070508;28;20184;-77
2021/01/06 03:24:54;;;;;;;28.17;25.83;;;2.20;95.70;;;;;;5076212;28;20200;-77
2021/01/06 03:27:21;;;;;;;28.30;25.95;;;2.30;94.80;;;;;;5075139;28;20216;-76
2021/01/06 03:29:49;;;;;;;29.33;26.85;;;2.20;94.60;;;;;;5075189;28;20222;-77
2021/01/06 03:32:24;;;;;;;27.58;25.27;;;2.10;95.50;;;;;;5074972;28;20227;-77
2021/01/06 03:34:57;;;;;;;30.02;27.58;;;2.00;95.50;;;;;;5061368;28;20188;-77
2021/01/06 03:37:29;;;;;;;28.60;26.30;;;1.90;95.90;;;;;;5055094;28;20220;-77
2021/01/06 03:40:01;;;;;;;28.00;25.45;;;1.90;96.00;;;;;;5055047;28;20566;-77
2021/01/06 03:42:28;;;;;;;27.98;25.73;;;2.00;96.10;;;;;;5053846;28;20216;-77
2021/01/06 03:44:55;;;;;;;28.10;25.80;;;1.90;96.20;;;;;;5055164;28;20193;-77
2021/01/06 03:47:25;;;;;;;28.33;25.92;;;2.00;96.10;;;;;;5054724;28;20577;-77
2021/01/06 03:50:02;;;;;;;29.52;27.17;;;2.00;96.00;;;;;;5054548;28;20208;-77
2021/01/06 03:52:47;;;;;;;29.75;27.17;;;2.00;96.20;;;;;;5054809;28;20222;-77
2021/01/06 03:55:24;;;;;;;30.67;28.15;;;2.10;95.90;;;;;;5060090;28;20226;-77
2021/01/06 03:57:53;;;;;;;28.33;25.92;;;2.10;95.20;;;;;;5074477;28;20634;-77
2021/01/06 04:00:42;;;;;;;27.90;25.60;;;2.00;95.20;;;;;;5074710;28;20203;-77
2021/01/06 04:03:20;;;;;;;29.60;26.95;;;2.00;95.40;;;;;;5074792;28;20192;-77
2021/01/06 04:05:48;;;;;;;29.23;26.63;;;2.00;95.20;;;;;;5063733;28;20200;-77
2021/01/06 04:08:20;;;;;;;27.83;25.52;;;1.80;95.30;;;;;;5054425;28;20203;-77
2021/01/06 04:10:52;;;;;;;29.13;26.63;;;1.90;95.80;;;;;;5054560;28;20747;-77
2021/01/06 04:13:18;;;;;;;31.13;28.23;;;1.80;95.80;;;;;;5054595;28;20220;-77
2021/01/06 04:15:45;;;;;;;30.50;27.65;;;1.80;95.90;;;;;;5055390;28;20292;-77
2021/01/06 04:18:12;;;;;;;43.85;29.02;;;1.90;95.90;;;;;;5055433;28;20188;-77
2021/01/06 04:20:40;;;;;;;28.98;26.63;;;2.00;95.60;;;;;;5054228;28;20246;-77
2021/01/06 04:23:08;;;;;;;29.70;27.20;;;2.00;95.60;;;;;;5074006;28;20275;-77
2021/01/06 04:25:36;;;;;;;29.73;27.13;;;2.10;95.10;;;;;;5074028;28;20206;-76
2021/01/06 04:28:11;;;;;;;27.88;25.65;;;2.10;94.30;;;;;;5061042;28;20196;-76
2021/01/06 04:30:40;;;;;;;29.60;27.17;;;2.10;94.90;;;;;;5067743;28;20661;-77
2021/01/06 04:33:10;;;;;;;29.27;26.67;;;1.90;94.90;;;;;;5054000;28;20216;-77
2021/01/06 04:35:38;;;;;;;28.77;26.38;;;1.70;94.90;;;;;;5053816;28;20638;-77
2021/01/06 04:38:05;;;;;;;29.55;27.10;;;1.70;95.80;;;;;;5054136;28;20209;-77
2021/01/06 04:40:37;;;;;;;28.83;26.42;;;1.90;95.70;;;;;;5066451;28;20282;-77
2021/01/06 04:43:13;;;;;;;29.77;27.25;;;2.00;95.20;;;;;;5073907;28;20208;-76
2021/01/06 04:45:43;;;;;;;29.48;26.85;;;2.10;94.60;;;;;;5073417;28;20233;-77
2021/01/06 04:48:26;;;;;;;28.42;26.02;;;2.00;94.50;;;;;;5073341;28;20287;-77
2021/01/06 04:51:09;;;;;;;28.00;25.58;;;1.90;95.10;;;;;;5073417;28;20196;-77
2021/01/06 04:54:00;;;;;;;33.58;28.98;;;1.80;95.70;;;;;;5053434;28;20227;-77
2021/01/06 04:56:41;;;;;;;29.88;27.30;;;1.90;95.70;;;;;;5069657;28;20577;-77
2021/01/06 04:59:21;;;;;;;29.70;26.90;;;2.10;95.10;;;;;;5058252;28;20192;-77
2021/01/06 05:02:08;;;;;;;29.90;27.00;;;1.90;95.00;;;;;;5058015;28;20196;-76
2021/01/06 05:05:15;;;;;;;31.65;28.85;;;2.00;95.00;;;;;;5060454;28;20206;-77
2021/01/06 05:07:56;;;;;;;29.52;27.10;;;2.00;95.10;;;;;;5011369;28;20703;-77
2021/01/06 05:10:28;;;;;;;33.70;30.05;;;1.80;95.40;;;;;;5011530;28;20597;-77
2021/01/06 05:13:01;;;;;;;30.23;27.33;;;1.90;95.30;;;;;;5032985;28;20220;-77
2021/01/06 05:15:39;;;;;;;30.50;27.55;;;1.80;95.30;;;;;;5065725;28;20672;-76
2021/01/06 05:18:06;;;;;;;31.00;28.05;;;1.90;95.70;;;;;;5073228;28;20203;-77
2021/01/06 05:20:33;;;;;;;31.02;28.02;;;2.00;95.10;;;;;;5073083;28;20204;-77
2021/01/06 05:23:01;;;;;;;29.55;27.00;;;1.90;95.20;;;;;;5073122;28;20196;-77
2021/01/06 05:25:29;;;;;;;30.38;27.67;;;2.00;95.00;;;;;;5056478;28;20627;-77
2021/01/06 05:27:56;;;;;;;29.15;26.63;;;2.10;94.50;;;;;;5052799;28;20220;-77
2021/01/06 05:30:26;;;;;;;28.80;26.15;;;2.00;94.20;;;;;;5052738;28;20196;-78
2021/01/06 05:32:58;;;;;;;28.85;26.45;;;2.00;94.30;;;;;;5063387;28;20215;-77
2021/01/06 05:35:28;;;;;;;28.73;26.27;;;2.00;94.30;;;;;;5072621;28;20646;-77
2021/01/06 05:37:56;;;;;;;27.15;25.00;;;1.90;94.50;;;;;;5072846;28;20573;-77
2021/01/06 05:40:24;;;;;;;28.52;26.02;;;1.90;94.50;;;;;;5072828;28;20196;-77
2021/01/06 05:42:52;;;;;;;29.52;26.98;;;1.80;94.60;;;;;;5062407;28;20650;-78
2021/01/06 05:45:20;;;;;;;29.33;26.80;;;1.80;95.00;;;;;;5052824;28;20192;-77
2021/01/06 05:47:51;;;;;;;29.70;26.92;;;1.90;95.00;;;;;;5052551;28;20595;-77
2021/01/06 05:50:22;;;;;;;29.80;27.35;;;2.00;94.20;;;;;;5052425;28;20260;-77
2021/01/06 05:52:59;;;;;;;28.52;26.02;;;1.90;94.20;;;;;;5053870;28;20221;-77
2021/01/06 05:55:31;;;;;;;28.00;25.50;;;2.00;94.30;;;;;;5066543;28;20199;-76
2021/01/06 05:58:05;;;;;;;28.75;26.15;;;2.00;93.90;;;;;;5072733;28;20258;-77
2021/01/06 06:00:52;;;;;;;27.60;25.23;;;2.00;94.00;;;;;;5072609;28;20207;-77
2021/01/06 06:04:00;;;;;;;29.40;27.10;;;2.00;94.00;;;;;;5072789;28;20207;-77
2021/01/06 06:07:05;;;;;;;27.92;25.50;;;2.10;93.70;;;;;;5068823;28;20212;-77
2021/01/06 06:09:48;;;;;;;27.20;24.90;;;2.00;93.50;;;;;;5052542;28;20192;-77
2021/01/06 06:12:55;;;;;;;28.15;25.63;;;1.80;94.30;;;;;;5052669;28;20207;-77
2021/01/06 06:15:42;;;;;;;28.48;25.98;;;2.00;94.50;;;;;;5046588;28;20557;-77
2021/01/06 06:18:42;;;;;;;28.23;26.02;;;1.90;94.30;;;;;;5066332;28;20603;-77
2021/01/06 06:21:26;;;;;;;27.02;24.63;;;1.90;94.30;;;;;;5067883;28;20188;-77
2021/01/06 06:24:04;;;;;;;27.35;25.23;;;1.90;94.40;;;;;;5072511;28;20188;-77
2021/01/06 06:26:43;;;;;;;28.33;25.70;;;1.90;94.60;;;;;;5068714;28;20208;-77
2021/01/06 06:29:20;;;;;;;27.77;25.48;;;2.00;94.50;;;;;;5052241;28;20207;-77
2021/01/06 06:31:51;;;;;;;28.98;26.52;;;2.10;94.00;;;;;;5052270;28;20298;-77
2021/01/06 06:34:25;;;;;;;27.45;25.15;;;2.00;93.90;;;;;;5052288;28;20224;-77
2021/01/06 06:37:01;;;;;;;26.92;24.73;;;2.00;93.70;;;;;;5053189;28;20261;-77
2021/01/06 06:39:31;;;;;;;28.50;26.13;;;1.90;93.80;;;;;;5052216;28;20215;-77
2021/01/06 06:42:11;;;;;;;26.45;24.42;;;1.90;94.10;;;;;;5052982;28;20197;-77
2021/01/06 06:44:50;;;;;;;26.33;24.25;;;2.00;93.90;;;;;;5052228;28;20197;-77
2021/01/06 06:47:18;;;;;;;26.98;24.63;;;2.00;93.90;;;;;;5052145;28;20216;-77
2021/01/06 06:50:24;;;;;;;25.35;23.25;;;2.10;94.70;;;;;;5052396;28;20204;-77
2021/01/06 06:52:59;;;;;;;27.45;25.15;;;2.10;94.00;;;;;;5053824;28;20296;-77
2021/01/06 06:55:33;;;;;;;26.98;24.77;;;2.00;93.70;;;;;;5071945;28;20206;-77
2021/01/06 06:58:19;;;;;;;27.10;24.80;;;2.00;93.90;;;;;;5070019;28;20294;-77
2021/01/06 07:00:48;;;;;;;26.30;24.33;;;2.00;93.80;;;;;;5071978;28;20680;-77
2021/01/06 07:03:21;;;;;;;26.02;24.02;;;2.10;93.70;;;;;;5072230;28;20192;-77
2021/01/06 07:05:51;;;;;;;27.67;25.48;;;2.10;93.40;;;;;;5065417;28;20192;-77
2021/01/06 07:08:22;;;;;;;27.73;25.52;;;2.00;93.40;;;;;;5052088;28;20205;-77
2021/01/06 07:10:57;;;;;;;27.38;25.27;;;2.10;93.70;;;;;;5052079;28;20197;-77
2021/01/06 07:13:25;;;;;;;26.40;24.27;;;2.20;93.00;;;;;;5052006;28;20216;-77
2021/01/06 07:15:54;;;;;;;26.13;24.13;;;2.10;93.40;;;;;;5058799;28;20188;-78
2021/01/06 07:18:36;;;;;;;26.27;24.27;;;2.00;93.30;;;;;;5060133;28;20275;-77
2021/01/06 07:21:21;;;;;;;23.88;22.05;;;1.90;93.30;;;;;;5055641;28;20573;-77
2021/01/06 07:23:52;;;;;;;1840.78;287.85;;;1.90;93.70;;;;;;5055488;28;20659;-77
2021/01/06 07:26:23;;;;;;;25.48;23.48;;;2.00;94.40;;;;;;5064930;28;20295;-77
2021/01/06 07:28:58;;;;;;;27.45;25.08;;;2.10;94.00;;;;;;5075432;28;20212;-77
2021/01/06 07:31:28;;;;;;;25.35;23.42;;;2.30;92.70;;;;;;5075270;28;20216;-77
2021/01/06 07:33:58;;;;;;;26.10;24.02;;;2.10;93.30;;;;;;5075047;28;20322;-77
2021/01/06 07:36:28;;;;;;;26.52;24.15;;;2.10;93.00;;;;;;5054920;28;20708;-77
2021/01/06 07:38:56;;;;;;;25.73;23.63;;;2.10;93.30;;;;;;5055036;28;20650;-78
2021/01/06 07:41:24;;;;;;;25.25;23.35;;;2.20;92.90;;;;;;5064241;28;20188;-77
2021/01/06 07:44:06;;;;;;;26.10;24.25;;;2.10;92.80;;;;;;5075063;28;20684;-77
2021/01/06 07:46:48;;;;;;;24.83;23.10;;;2.00;92.90;;;;;;5074952;28;20230;-77
2021/01/06 07:49:40;;;;;;;25.00;23.17;;;2.00;93.50;;;;;;5074621;28;20199;-77
2021/01/06 07:52:23;;;;;;;24.73;23.02;;;2.00;94.00;;;;;;5061742;28;20189;-77
2021/01/06 07:54:54;;;;;;;26.45;24.30;;;2.10;93.20;;;;;;5055009;28;20322;-77
2021/01/06 07:57:33;;;;;;;25.85;23.98;;;2.10;92.60;;;;;;5054547;28;20221;-77
2021/01/06 08:00:06;;;;;;;26.63;24.52;;;1.90;93.20;;;;;;5054914;28;20204;-77
2021/01/06 08:02:51;;;;;;;26.48;24.52;;;2.00;93.60;;;;;;5071104;28;20192;-77
2021/01/06 08:05:25;;;;;;;24.92;23.13;;;2.10;93.20;;;;;;5074354;28;20242;-77
2021/01/06 08:08:07;;;;;;;25.25;23.55;;;2.10;93.20;;;;;;5064176;28;20209;-77
2021/01/06 08:10:36;;;;;;;26.27;24.25;;;2.10;92.50;;;;;;5054568;28;20204;-77
2021/01/06 08:13:23;;;;;;;24.85;23.10;;;2.10;92.70;;;;;;5056873;28;20204;-77
2021/01/06 08:15:53;;;;;;;25.00;23.20;;;2.20;92.70;;;;;;5074332;28;20661;-77
2021/01/06 08:18:43;;;;;;;26.27;24.17;;;2.10;92.90;;;;;;5074378;28;20192;-77
2021/01/06 08:21:15;;;;;;;27.60;25.60;;;2.10;93.10;;;;;;5073888;28;20211;-78
2021/01/06 08:23:54;;;;;;;25.13;23.17;;;2.20;92.70;;;;;;5055532;28;20195;-77
2021/01/06 08:26:24;;;;;;;24.83;23.02;;;2.30;92.40;;;;;;5054186;28;20231;-77
2021/01/06 08:28:51;;;;;;;25.45;23.55;;;2.20;92.50;;;;;;5053936;28;20204;-77
2021/01/06 08:31:19;;;;;;;26.75;24.70;;;2.20;92.20;;;;;;5054162;28;20579;-78
2021/01/06 08:33:52;;;;;;;25.80;23.90;;;2.40;92.10;;;;;;5073893;28;20241;-77
2021/01/06 08:36:26;;;;;;;24.08;22.27;;;2.40;91.50;;;;;;5073755;28;20223;-77
2021/01/06 08:39:07;;;;;;;62.00;24.75;;;2.30;91.80;;;;;;5073882;28;20203;-78
2021/01/06 08:41:34;;;;;;;24.30;22.48;;;2.30;91.90;;;;;;5070854;28;20211;-77
2021/01/06 08:44:03;;;;;;;25.05;23.15;;;2.30;92.10;;;;;;5066702;28;20184;-77
2021/01/06 08:46:32;;;;;;;26.02;24.05;;;2.10;92.70;;;;;;5073208;28;20638;-77
2021/01/06 08:49:09;;;;;;;23.58;21.98;;;2.20;92.60;;;;;;5073798;28;20562;-77
2021/01/06 08:51:37;;;;;;;24.15;22.45;;;2.10;94.70;;;;;;5070599;28;20195;-77
2021/01/06 08:54:28;;;;;;;24.90;23.15;;;2.10;93.80;;;;;;5053706;28;20274;-77
2021/01/06 08:57:01;;;;;;;26.52;24.42;;;1.90;93.40;;;;;;5053422;28;20227;-77
2021/01/06 08:59:34;;;;;;;23.80;22.10;;;2.00;94.10;;;;;;5053483;28;20196;-77
2021/01/06 09:02:02;;;;;;;39.72;25.30;;;2.10;93.70;;;;;;5062483;28;20244;-77
2021/01/06 09:04:39;;;;;;;168.77;41.42;;;2.20;93.40;;;;;;5054016;28;20205;-78
2021/01/06 09:07:16;;;;;;;23.88;22.20;;;2.10;94.00;;;;;;5065025;28;20215;-77
2021/01/06 09:10:00;;;;;;;24.80;23.10;;;2.10;93.30;;;;;;5073448;28;20252;-77
2021/01/06 09:12:43;;;;;;;24.55;22.85;;;2.00;93.50;;;;;;5058903;28;20256;-77
2021/01/06 09:15:23;;;;;;;26.08;24.25;;;2.00;93.50;;;;;;5056386;28;20278;-77
2021/01/06 09:17:55;;;;;;;24.25;22.55;;;2.10;93.20;;;;;;5072851;28;20716;-77
2021/01/06 09:20:32;;;;;;;23.83;22.10;;;2.20;93.20;;;;;;5066421;28;20189;-77
2021/01/06 09:22:59;;;;;;;287.52;47.85;;;2.40;92.90;;;;;;5069566;28;20654;-77
2021/01/06 09:25:27;;;;;;;23.92;22.35;;;2.40;92.70;;;;;;5052957;28;20216;-77
2021/01/06 09:27:57;;;;;;;24.60;22.85;;;2.20;92.10;;;;;;5053220;28;20217;-77
2021/01/06 09:30:28;;;;;;;24.33;22.42;;;2.20;92.60;;;;;;5058700;28;20196;-77
2021/01/06 09:32:56;;;;;;;25.83;23.92;;;2.20;92.80;;;;;;5071106;28;20216;-77
2021/01/06 09:35:29;;;;;;;25.48;23.23;;;2.30;93.00;;;;;;5053097;28;20193;-77
2021/01/06 09:37:59;;;;;;;23.92;22.27;;;2.40;92.40;;;;;;5053035;28;20213;-77
2021/01/06 09:40:31;;;;;;;23.25;21.70;;;2.30;92.70;;;;;;5052454;28;20199;-77
2021/01/06 09:43:00;;;;;;;25.20;23.38;;;2.40;93.00;;;;;;5064954;28;20199;-77
2021/01/06 09:45:28;;;;;;;27.27;25.17;;;2.50;91.90;;;;;;5071879;28;20184;-77
2021/01/06 09:47:58;;;;;;;25.75;23.85;;;2.40;91.90;;;;;;5072669;28;20226;-77
2021/01/06 09:50:31;;;;;;;40.13;26.25;;;2.50;91.50;;;;;;5072495;28;20210;-77
2021/01/06 09:53:01;;;;;;;24.40;22.73;;;2.50;91.60;;;;;;5062643;28;20208;-77
2021/01/06 09:55:29;;;;;;;25.02;23.33;;;2.50;91.40;;;;;;5053118;28;20196;-77
2021/01/06 09:58:04;;;;;;;25.75;23.48;;;2.50;91.80;;;;;;5052883;28;20215;-77
2021/01/06 10:00:41;;;;;;;25.15;23.45;;;2.50;92.00;;;;;;5052505;28;20437;-77
2021/01/06 10:03:10;;;;;;;25.92;24.05;;;2.40;91.10;;;;;;5068399;28;20220;-77
2021/01/06 10:05:57;;;;;;;25.70;23.95;;;2.40;91.40;;;;;;5072400;28;20691;-76
2021/01/06 10:08:35;;;;;;;24.25;22.55;;;2.40;92.40;;;;;;5073213;28;20196;-77
2021/01/06 10:11:10;;;;;;;25.67;23.85;;;2.40;93.00;;;;;;5073131;28;20199;-77
2021/01/06 10:14:02;;;;;;;25.17;23.45;;;2.40;92.90;;;;;;5072198;28;20219;-77
2021/01/06 10:16:34;;;;;;;26.67;24.67;;;2.50;92.80;;;;;;5072004;28;20222;-77
2021/01/06 10:19:13;;;;;;;25.85;24.15;;;2.40;94.80;;;;;;5072597;28;20200;-77
2021/01/06 10:21:53;;;;;;;25.80;23.85;;;2.40;94.00;;;;;;5072446;28;20197;-77
2021/01/06 10:24:41;;;;;;;24.98;23.35;;;2.50;93.90;;;;;;5058257;28;20279;-77
2021/01/06 10:27:24;;;;;;;25.55;23.75;;;2.50;92.70;;;;;;5063222;28;20218;-77
2021/01/06 10:29:52;;;;;;;28.38;25.73;;;2.60;92.30;;;;;;5071705;28;20665;-78
2021/01/06 10:32:38;;;;;;;25.65;23.75;;;2.50;92.80;;;;;;5065290;28;20200;-77
2021/01/06 10:35:24;;;;;;;24.63;22.92;;;2.60;92.50;;;;;;5065420;28;20189;-78
2021/01/06 10:37:52;;;;;;;24.85;23.15;;;2.60;91.60;;;;;;5069695;28;20215;-77
2021/01/06 10:40:24;;;;;;;25.08;23.38;;;2.60;92.00;;;;;;5072239;28;20421;-78
2021/01/06 10:42:51;;;;;;;26.50;24.60;;;2.60;91.50;;;;;;5057923;28;20551;-77
2021/01/06 10:45:43;;;;;;;26.25;24.45;;;2.50;91.80;;;;;;5052187;28;20568;-77
2021/01/06 10:48:44;;;;;;;24.80;23.00;;;2.50;92.10;;;;;;5052046;28;20686;-77
2021/01/06 10:51:10;;;;;;;26.98;25.05;;;2.30;92.30;;;;;;5051645;28;20257;-78
2021/01/06 10:53:41;;;;;;;26.52;24.52;;;2.30;92.90;;;;;;5075563;28;20785;-77
2021/01/06 10:56:11;;;;;;;26.52;24.63;;;2.40;92.40;;;;;;5075109;28;20574;-78
2021/01/06 10:58:52;;;;;;;27.00;24.95;;;2.30;92.40;;;;;;5075799;28;20704;-78
2021/01/06 11:02:08;;;;;;;26.50;23.83;;;2.40;93.00;;;;;;5074638;28;20231;-77
2021/01/06 11:05:02;;;;;;;25.85;23.95;;;2.40;93.30;;;;;;5056002;28;20199;-77
2021/01/06 11:07:42;;;;;;;26.77;24.88;;;2.40;92.60;;;;;;5055629;28;20888;-77
2021/01/06 11:10:20;;;;;;;28.65;26.55;;;2.40;92.60;;;;;;5055573;28;20200;-78
2021/01/06 11:13:00;;;;;;;27.92;25.92;;;2.30;92.70;;;;;;5068143;28;20658;-77
2021/01/06 11:15:35;;;;;;;28.27;26.17;;;2.40;93.00;;;;;;5075682;28;20622;-79
2021/01/06 11:18:16;;;;;;;27.88;25.88;;;2.50;92.60;;;;;;5075537;28;20798;-77
2021/01/06 11:20:47;;;;;;;96.15;30.55;;;2.50;92.40;;;;;;5075702;28;20196;-77
2021/01/06 11:23:49;;;;;;;113.35;33.75;;;2.50;92.80;;;;;;5063104;28;20188;-77
2021/01/06 11:26:45;;;;;;;28.02;25.92;;;2.70;94.40;;;;;;5075175;28;20684;-77
2021/01/06 11:29:19;;;;;;;28.55;26.45;;;2.70;92.30;;;;;;5075292;28;20207;-77
2021/01/06 11:32:21;;;;;;;203.48;48.95;;;2.70;92.40;;;;;;5071690;28;20199;-77
2021/01/06 11:35:06;;;;;;;26.70;24.70;;;2.80;93.30;;;;;;5070659;28;20221;-77
2021/01/06 11:37:37;;;;;;;27.23;25.20;;;2.80;94.10;;;;;;5059106;28;20251;-77
2021/01/06 11:40:07;;;;;;;26.10;24.30;;;2.70;92.50;;;;;;5055096;28;20204;-77
2021/01/06 11:42:51;;;;;;;28.67;26.02;;;2.80;92.80;;;;;;5054854;28;20562;-77
2021/01/06 11:45:21;;;;;;;27.15;25.33;;;2.90;93.50;;;;;;5055047;28;20544;-77
2021/01/06 11:47:50;;;;;;;27.40;25.65;;;2.90;92.00;;;;;;5054710;28;20227;-76
2021/01/06 11:50:40;;;;;;;28.00;26.00;;;2.80;91.50;;;;;;5054765;28;20196;-77
2021/01/06 11:53:23;;;;;;;27.65;25.75;;;2.80;91.80;;;;;;5071075;28;20220;-77
2021/01/06 11:56:15;;;;;;;27.20;25.20;;;2.70;91.90;;;;;;5074492;28;20200;-77
2021/01/06 11:59:08;;;;;;;28.20;26.00;;;2.80;92.20;;;;;;5069710;28;20231;-77
2021/01/06 12:02:00;;;;;;;26.75;24.95;;;2.70;92.60;;;;;;5062747;28;20199;-77
2021/01/06 12:04:51;;;;;;;28.23;26.23;;;2.80;91.60;;;;;;5074624;28;20192;-77
2021/01/06 12:07:48;;;;;;;28.38;26.27;;;2.70;92.40;;;;;;5074542;28;20220;-77
2021/01/06 12:10:43;;;;;;;28.73;26.55;;;2.80;92.10;;;;;;5051119;28;20204;-77
2021/01/06 12:13:19;;;;;;;27.83;25.52;;;2.80;91.60;;;;;;5053373;28;20310;-77
2021/01/06 12:16:02;;;;;;;28.95;26.90;;;2.70;91.70;;;;;;5054416;28;20196;-77
2021/01/06 12:18:49;;;;;;;29.67;27.40;;;2.70;92.00;;;;;;5057145;28;20192;-77
2021/01/06 12:21:56;;;;;;;29.60;27.10;;;2.70;92.20;;;;;;5074413;28;20202;-77
2021/01/06 12:24:45;;;;;;;27.73;25.50;;;2.80;92.50;;;;;;5074317;28;20335;-77
2021/01/06 12:28:02;;;;;;;27.42;25.42;;;3.00;92.60;;;;;;5074233;28;20268;-77
2021/01/06 12:30:47;;;;;;;180.02;42.15;;;3.00;92.80;;;;;;5054235;28;20658;-77
2021/01/06 12:33:34;;;;;;;27.77;25.88;;;3.00;94.30;;;;;;5052448;28;20230;-77
2021/01/06 12:36:29;;;;;;;961.13;138.30;;;3.00;93.60;;;;;;5054164;28;20282;-77
2021/01/06 12:39:24;;;;;;;26.15;24.35;;;3.00;92.60;;;;;;5036326;28;20270;-77
2021/01/06 12:41:54;;;;;;;25.83;24.02;;;3.10;92.90;;;;;;5073609;28;20200;-77
2021/01/06 12:44:24;;;;;;;23.95;22.25;;;3.20;92.30;;;;;;5073531;28;20607;-77
2021/01/06 12:46:57;;;;;;;25.58;23.83;;;3.20;91.80;;;;;;5061114;28;20552;-77
2021/01/06 12:49:53;;;;;;;572.50;97.68;;;3.10;91.70;;;;;;5053610;28;20208;-77
2021/01/06 12:52:38;;;;;;;24.63;22.92;;;3.20;92.70;;;;;;5053675;28;20204;-77
2021/01/06 12:55:10;;;;;;;25.05;23.08;;;3.40;91.50;;;;;;5051681;28;20201;-77
2021/01/06 12:57:45;;;;;;;25.63;23.83;;;3.40;90.40;;;;;;5053401;28;20224;-77
2021/01/06 13:00:31;;;;;;;23.90;22.10;;;3.30;90.60;;;;;;5053713;28;20681;-77
2021/01/06 13:03:27;;;;;;;25.80;23.90;;;3.20;90.00;;;;;;5053537;28;20203;-77
2021/01/06 13:06:00;;;;;;;25.25;23.45;;;3.30;90.30;;;;;;5071621;28;20539;-77
2021/01/06 13:08:50;;;;;;;24.27;22.35;;;3.20;90.60;;;;;;5073131;28;20187;-77
2021/01/06 13:11:21;;;;;;;23.90;22.33;;;3.30;91.10;;;;;;5073435;28;20679;-77
2021/01/06 13:13:48;;;;;;;23.33;21.83;;;3.30;91.70;;;;;;5071658;28;20219;-77
2021/01/06 13:16:29;;;;;;;22.60;21.02;;;3.40;91.40;;;;;;5052970;28;20220;-77